Time;durP1;ratioP1;P1;durP2;ratioP2;P2;SDS_P1;SDS_P2;PMS_P1;PMS_P2;Temp;Humidity;BMP_temperature;BMP_pressure;BME280_temperature;BME280_humidity;BME280_pressure;Samples;Min_cycle;Max_cycle;Signal;HPM_P1;HPM_P2
2023/09/04 00:03:17;;;;;;;2.85;2.30;;;16.90;92.70;;;15.65;76.59;100774.88;10314948;28;96633;-88
2023/09/04 00:08:21;;;;;;;2.47;2.08;;;16.80;92.90;;;15.56;76.97;100786.69;10321483;28;96907;-88
2023/09/04 00:13:26;;;;;;;3.42;2.53;;;16.70;93.10;;;15.43;77.81;100790.84;10304852;28;98308;-88
2023/09/04 00:18:31;;;;;;;3.22;2.85;;;16.60;93.30;;;15.35;78.42;100780.22;10302622;28;98189;-88
2023/09/04 00:23:34;;;;;;;3.63;2.70;;;16.60;93.60;;;15.34;78.52;100789.28;10305331;28;96713;-88
2023/09/04 00:28:38;;;;;;;3.20;2.35;;;16.50;93.70;;;15.35;78.84;100790.09;10336800;28;98677;-88
2023/09/04 00:33:41;;;;;;;3.80;2.83;;;16.50;93.80;;;15.33;79.08;100786.78;10301041;28;98367;-88
2023/09/04 00:38:45;;;;;;;3.38;2.42;;;16.50;93.80;;;15.30;78.97;100787.19;10324029;28;96470;-88
2023/09/04 00:43:50;;;;;;;2.88;2.58;;;16.50;94.00;;;15.23;79.65;100787.06;10324696;28;96597;-88
2023/09/04 00:48:56;;;;;;;3.20;2.47;;;16.40;94.20;;;15.19;80.36;100783.94;10316839;28;97311;-88
2023/09/04 00:54:00;;;;;;;2.85;2.30;;;16.30;94.30;;;15.17;80.41;100783.28;10319666;28;96599;-87
2023/09/04 00:59:04;;;;;;;5.38;2.50;;;16.30;94.40;;;15.14;80.61;100774.78;10311282;28;97124;-87
2023/09/04 01:04:07;;;;;;;3.33;2.80;;;16.30;94.50;;;15.14;80.53;100780.13;10287751;28;96615;-87
2023/09/04 01:09:11;;;;;;;2.80;2.10;;;16.30;94.50;;;15.10;80.72;100768.13;10332107;28;96553;-87
2023/09/04 01:14:19;;;;;;;5.15;3.10;;;16.30;94.60;;;15.03;81.38;100775.22;10315299;28;96614;-87
2023/09/04 01:19:24;;;;;;;3.70;3.00;;;16.20;94.70;;;14.89;81.97;100775.03;10314994;28;98809;-87
2023/09/04 01:24:28;;;;;;;5.13;3.00;;;16.10;95.00;;;14.80;82.10;100768.06;10299617;28;97415;-87
2023/09/04 01:29:45;;;;;;;3.65;2.58;;;16.00;95.10;;;14.80;82.40;100776.09;10316670;28;96656;-87
2023/09/04 01:34:51;;;;;;;3.83;3.10;;;16.00;95.20;;;14.80;82.26;100778.78;10303706;28;96689;-88
2023/09/04 01:39:55;;;;;;;3.53;2.65;;;16.00;95.30;;;14.85;82.42;100784.44;10317886;28;98038;-88
2023/09/04 01:44:59;;;;;;;3.38;2.80;;;16.10;95.30;;;14.77;82.43;100786.34;10299380;28;96533;-88
2023/09/04 01:50:02;;;;;;;4.00;2.58;;;16.00;95.40;;;14.64;83.07;100790.47;10315073;28;96551;-88
2023/09/04 01:55:06;;;;;;;5.20;2.70;;;15.90;95.60;;;14.55;83.89;100793.38;10316261;28;98432;-87
2023/09/04 02:00:11;;;;;;;3.75;3.00;;;15.80;95.90;;;14.50;84.05;100785.06;10330745;28;96523;-87
2023/09/04 02:05:15;;;;;;;4.22;2.60;;;15.70;96.10;;;14.55;84.11;100780.00;10301309;28;97275;-88
2023/09/04 02:10:22;;;;;;;4.00;2.45;;;15.80;96.20;;;14.67;84.31;100789.28;10301094;28;96968;-87
2023/09/04 02:15:27;;;;;;;3.45;2.70;;;15.80;96.10;;;14.77;83.88;100786.34;10300134;28;98312;-88
2023/09/04 02:20:31;;;;;;;4.18;3.15;;;15.90;96.10;;;14.85;83.43;100794.28;10331895;28;98131;-87
2023/09/04 02:25:35;;;;;;;3.10;2.63;;;16.00;96.10;;;14.88;83.21;100808.16;10301441;28;96578;-88
2023/09/04 02:30:40;;;;;;;2.83;2.33;;;16.10;96.00;;;14.87;83.15;100814.53;10314649;28;96565;-88
2023/09/04 02:35:43;;;;;;;3.10;2.72;;;16.10;96.00;;;14.81;82.93;100815.22;10313931;28;96569;-88
2023/09/04 02:40:47;;;;;;;3.67;3.03;;;16.00;95.90;;;14.70;83.00;100811.16;10298796;28;96743;-88
2023/09/04 02:45:51;;;;;;;4.65;3.13;;;16.00;96.00;;;14.63;83.30;100823.59;10297097;28;96495;-88
2023/09/04 02:50:58;;;;;;;5.68;3.13;;;15.90;96.10;;;14.47;83.40;100818.34;10314298;28;98354;-88
2023/09/04 02:56:03;;;;;;;3.88;3.22;;;15.80;96.20;;;14.31;84.16;100811.22;10314957;28;96957;-88
2023/09/04 03:01:06;;;;;;;4.75;3.25;;;15.60;96.40;;;14.15;85.05;100814.00;10295786;28;98529;-88
2023/09/04 03:06:11;;;;;;;4.85;3.42;;;15.40;96.60;;;14.00;85.78;100818.44;10295540;28;96554;-88
2023/09/04 03:11:14;;;;;;;3.47;2.88;;;15.20;96.90;;;13.86;86.03;100817.34;10307804;28;96646;-88
2023/09/04 03:16:18;;;;;;;3.92;3.40;;;15.10;97.20;;;13.80;86.67;100832.22;10313917;28;97265;-88
2023/09/04 03:21:21;;;;;;;4.57;3.63;;;15.10;97.40;;;13.76;87.28;100827.41;10330458;28;97014;-88
2023/09/04 03:26:26;;;;;;;3.75;3.20;;;15.00;97.70;;;13.68;88.21;100825.59;10298529;28;96704;-87
2023/09/04 03:31:30;;;;;;;4.63;3.65;;;15.00;97.80;;;13.64;88.74;100843.78;10311524;28;96943;-88
2023/09/04 03:36:33;;;;;;;3.95;3.40;;;14.90;98.00;;;13.58;89.09;100833.81;10330187;28;96464;-88
2023/09/04 03:41:37;;;;;;;5.03;3.65;;;14.90;98.20;;;13.51;89.69;100827.50;10339709;28;96736;-88
2023/09/04 03:46:41;;;;;;;5.57;4.00;;;14.90;98.30;;;13.51;90.03;100832.81;10312144;28;96550;-88
2023/09/04 03:51:46;;;;;;;4.43;3.60;;;14.80;98.40;;;13.45;90.06;100836.19;10345580;28;97335;-88
2023/09/04 03:56:50;;;;;;;4.45;3.60;;;14.80;98.60;;;13.39;90.29;100836.88;10336177;28;96628;-88
2023/09/04 04:01:53;;;;;;;6.37;4.30;;;14.70;98.70;;;13.31;90.58;100842.19;10306484;28;96788;-88
2023/09/04 04:06:57;;;;;;;5.87;4.50;;;14.60;98.80;;;13.24;91.13;100846.56;10336642;28;97074;-88
2023/09/04 04:12:00;;;;;;;5.03;4.25;;;14.50;99.10;;;13.12;91.29;100849.53;10337888;28;98058;-88
2023/09/04 04:17:04;;;;;;;7.07;4.17;;;14.40;99.30;;;13.06;91.41;100849.38;10301415;28;96650;-88
2023/09/04 04:22:09;;;;;;;6.13;4.00;;;14.40;99.60;;;13.00;92.00;100850.88;10319929;28;96564;-88
2023/09/04 04:27:12;;;;;;;4.60;4.17;;;14.30;99.80;;;12.99;92.65;100854.56;10326790;28;98183;-88
2023/09/04 04:32:17;;;;;;;5.53;4.20;;;14.30;99.90;;;13.03;93.25;100865.75;10313709;28;97264;-88
2023/09/04 04:37:21;;;;;;;5.70;4.67;;;14.30;99.90;;;13.08;93.67;100871.41;10316556;28;98635;-88
2023/09/04 04:42:25;;;;;;;4.80;4.30;;;14.40;99.90;;;13.11;94.18;100871.06;10319261;28;97396;-87
2023/09/04 04:47:29;;;;;;;6.13;4.20;;;14.40;99.90;;;13.16;94.64;100878.56;10297413;28;98571;-88
2023/09/04 04:52:33;;;;;;;5.70;4.03;;;14.50;99.90;;;13.25;95.45;100882.91;10335118;28;96677;-88
2023/09/04 04:57:37;;;;;;;4.90;3.57;;;14.50;99.90;;;13.42;96.05;100895.25;10318511;28;97201;-85
2023/09/04 05:02:42;;;;;;;5.35;2.80;;;14.60;99.90;;;13.59;96.41;100899.56;10333239;28;97293;-86
2023/09/04 05:07:45;;;;;;;5.10;3.85;;;14.80;99.90;;;13.81;96.97;100895.34;10295371;28;97510;-86
2023/09/04 05:12:49;;;;;;;3.28;2.35;;;15.00;99.90;;;14.03;97.10;100888.38;10288660;28;98303;-85
2023/09/04 05:17:53;;;;;;;3.03;2.72;;;15.20;99.90;;;14.30;96.65;100894.28;10303407;28;96697;-85
2023/09/04 05:22:56;;;;;;;3.15;2.58;;;15.50;99.90;;;14.50;96.13;100890.19;10321494;28;97435;-88
2023/09/04 05:28:04;;;;;;;3.47;2.90;;;15.70;99.90;;;14.81;94.76;100897.34;10302995;28;98319;-88
2023/09/04 05:33:07;;;;;;;2.88;2.20;;;16.00;99.90;;;15.00;92.89;100891.53;10314520;28;96717;-88
2023/09/04 05:38:11;;;;;;;4.85;2.70;;;16.20;99.90;;;15.21;90.64;100899.69;10299412;28;98269;-88
2023/09/04 05:43:15;;;;;;;4.35;2.30;;;16.40;99.90;;;15.40;89.45;100900.19;10301448;28;96739;-88
2023/09/04 05:48:18;;;;;;;3.65;2.35;;;16.50;99.90;;;15.61;88.82;100897.63;10340042;28;96809;-86
2023/09/04 05:53:24;;;;;;;2.42;2.05;;;16.70;99.90;;;15.81;86.87;100899.78;10363094;28;97129;-88
2023/09/04 05:58:27;;;;;;;3.17;2.63;;;16.90;99.80;;;16.01;86.23;100888.34;10348129;28;96427;-87
2023/09/04 06:03:31;;;;;;;3.33;1.90;;;17.20;99.50;;;16.24;85.61;100896.22;10353921;28;98747;-89
2023/09/04 06:08:37;;;;;;;2.50;2.05;;;17.40;99.30;;;16.40;84.86;100902.41;10269091;28;97067;-89
2023/09/04 06:13:40;;;;;;;3.97;2.05;;;17.60;98.90;;;16.70;84.03;100901.34;10282919;28;96717;-88
2023/09/04 06:18:44;;;;;;;3.13;2.00;;;17.80;98.70;;;16.96;84.04;100892.69;10256045;28;96482;-88
2023/09/04 06:23:47;;;;;;;2.45;1.88;;;18.10;98.60;;;17.20;82.63;100893.31;10275604;28;96671;-89
2023/09/04 06:28:51;;;;;;;2.45;1.95;;;18.30;98.10;;;17.41;79.97;100884.41;10291790;28;97963;-88
2023/09/04 06:33:55;;;;;;;2.33;1.80;;;18.60;97.70;;;17.69;78.90;100889.72;10274068;28;96691;-87
2023/09/04 06:39:00;;;;;;;2.70;1.90;;;18.80;97.20;;;17.97;78.44;100900.47;10282482;28;98307;-87
2023/09/04 06:44:04;;;;;;;3.05;2.00;;;19.10;97.10;;;18.24;79.10;100904.94;10290802;28;97060;-87
2023/09/04 06:49:07;;;;;;;3.45;2.03;;;19.40;97.10;;;18.49;78.61;100899.03;10284600;28;98574;-88
2023/09/04 06:54:11;;;;;;;3.28;2.20;;;19.70;96.80;;;18.73;77.71;100905.75;10289324;28;96517;-88
2023/09/04 06:59:15;;;;;;;5.88;2.40;;;19.90;96.60;;;18.97;77.15;100906.00;10284109;28;96893;-88
2023/09/04 07:04:19;;;;;;;6.55;2.20;;;20.10;96.40;;;19.15;76.91;100910.78;10290026;28;96940;-88
2023/09/04 07:09:23;;;;;;;3.33;2.00;;;20.40;96.20;;;19.38;76.95;100929.22;10257971;28;96998;-88
2023/09/04 07:14:27;;;;;;;2.72;2.10;;;20.60;96.10;;;19.60;71.33;100931.72;10287657;28;97200;-89
2023/09/04 07:19:30;;;;;;;2.63;1.85;;;20.80;94.60;;;19.81;71.14;100917.16;10285873;28;98158;-89
2023/09/04 07:24:34;;;;;;;4.65;1.77;;;21.00;94.20;;;20.08;69.81;100928.69;10287779;28;96646;-88
2023/09/04 07:29:37;;;;;;;3.08;1.80;;;21.30;93.70;;;20.34;66.55;100925.09;10275889;28;96567;-88
2023/09/04 07:34:41;;;;;;;2.85;1.50;;;21.60;92.70;;;20.52;64.33;100909.03;10274523;28;96666;-89
2023/09/04 07:39:45;;;;;;;1.73;1.40;;;21.80;91.80;;;20.75;62.00;100913.88;10281581;28;96614;-89
2023/09/04 07:44:49;;;;;;;1.75;1.40;;;22.00;90.80;;;20.94;59.72;100899.44;10243936;28;96670;-89
2023/09/04 07:49:53;;;;;;;2.55;1.60;;;22.20;89.60;;;21.11;54.45;100908.66;10270010;28;96683;-88
2023/09/04 07:54:56;;;;;;;2.22;1.20;;;22.40;84.40;;;21.24;50.86;100893.38;10287370;28;97684;-89
2023/09/04 08:00:00;;;;;;;6.00;1.75;;;22.50;81.00;;;21.24;48.47;100896.09;10263652;28;98357;-88
2023/09/04 08:05:07;;;;;;;2.95;1.30;;;22.50;76.20;;;21.25;47.94;100903.97;10273807;28;97024;-90
2023/09/04 08:10:10;;;;;;;1.38;1.17;;;22.60;74.50;;;21.43;49.26;100910.50;10295834;28;96702;-88
2023/09/04 08:15:14;;;;;;;2.08;1.25;;;22.70;75.40;;;21.57;48.42;100909.31;10326406;28;96591;-89
2023/09/04 08:20:18;;;;;;;1.67;1.10;;;22.80;74.70;;;21.74;47.42;100901.44;10273077;28;98791;-89
2023/09/04 08:25:22;;;;;;;2.55;1.60;;;23.00;73.60;;;21.82;46.57;100899.25;10295321;28;97405;-88
2023/09/04 08:30:25;;;;;;;2.38;1.40;;;23.10;72.20;;;21.95;46.82;100917.25;10313625;28;96852;-88
2023/09/04 08:35:30;;;;;;;2.05;1.25;;;23.20;71.60;;;22.02;45.80;100911.75;10295041;28;96718;-88
2023/09/04 08:40:37;;;;;;;1.90;1.42;;;23.30;70.40;;;22.08;45.85;100927.91;10330233;28;96627;-88
2023/09/04 08:45:42;;;;;;;2.30;1.48;;;23.40;70.10;;;22.22;47.38;100922.38;10312076;28;98536;-88
2023/09/04 08:50:49;;;;;;;2.30;1.20;;;23.40;71.50;;;22.31;46.54;100919.16;10298879;28;97990;-88
2023/09/04 08:55:54;;;;;;;2.38;1.23;;;23.50;70.70;;;22.33;44.66;100913.50;10313777;28;96777;-88
2023/09/04 09:00:58;;;;;;;3.53;1.70;;;23.60;68.90;;;22.34;45.47;100909.72;10299124;28;97324;-89
2023/09/04 09:06:03;;;;;;;1.77;1.20;;;23.70;69.10;;;22.55;46.46;100905.69;10292810;28;98706;-88
2023/09/04 09:11:06;;;;;;;2.10;1.52;;;23.80;69.80;;;22.55;44.54;100898.41;10282462;28;97424;-88
2023/09/04 09:16:10;;;;;;;2.45;1.38;;;23.90;67.80;;;22.64;45.41;100909.72;10293232;28;96702;-87
2023/09/04 09:21:29;;;;;;;2.50;1.40;;;23.90;68.40;;;22.86;44.64;100910.88;10301210;28;96536;-88
2023/09/04 09:26:32;;;;;;;2.60;1.40;;;24.10;68.40;;;23.00;43.97;100914.22;10320035;28;96518;-88
2023/09/04 09:31:38;;;;;;;2.30;1.30;;;24.30;67.30;;;22.98;43.13;100900.09;10318141;28;96605;-89
2023/09/04 09:36:42;;;;;;;1.80;1.10;;;24.30;65.70;;;23.14;42.25;100895.84;10292159;28;96895;-87
2023/09/04 09:41:46;;;;;;;1.90;1.30;;;24.50;65.20;;;23.31;42.91;100898.72;10311532;28;98453;-88
2023/09/04 09:46:52;;;;;;;1.45;1.17;;;24.70;65.00;;;23.42;41.64;100889.75;10286259;28;96676;-90
2023/09/04 09:51:57;;;;;;;1.70;1.02;;;24.80;63.80;;;23.47;40.98;100896.13;10273057;28;97288;-89
2023/09/04 09:57:08;;;;;;;2.08;1.40;;;24.90;62.70;;;23.47;41.04;100898.00;10292440;28;98680;-89
2023/09/04 10:02:24;;;;;;;2.30;1.40;;;24.80;62.30;;;23.60;41.33;100897.78;10318375;28;96805;-89
2023/09/04 10:07:30;;;;;;;2.80;1.25;;;24.90;62.60;;;23.66;39.70;100901.47;10316183;28;96721;-88
2023/09/04 10:12:56;;;;;;;1.73;1.17;;;25.00;60.90;;;23.81;39.85;100881.97;10314999;28;96644;-89
2023/09/04 10:18:23;;;;;;;2.10;1.30;;;25.10;61.10;;;23.97;40.46;100886.66;10302162;28;96828;-88
2023/09/04 10:23:39;;;;;;;4.65;1.20;;;25.30;61.50;;;23.98;38.27;100888.31;10305368;28;96955;-88
2023/09/04 10:29:05;;;;;;;3.08;1.20;;;25.30;59.50;;;24.00;38.02;100891.63;10315803;28;98364;-88
2023/09/04 10:34:08;;;;;;;1.75;1.20;;;25.40;59.00;;;24.21;39.01;100885.53;10309232;28;97589;-89
2023/09/04 10:39:13;;;;;;;1.85;1.20;;;25.40;59.20;;;24.26;38.75;100877.47;10299325;28;96715;-88
2023/09/04 10:44:46;;;;;;;2.72;1.40;;;25.50;59.10;;;24.44;38.25;100884.66;10275486;28;96884;-89
2023/09/04 10:49:51;;;;;;;2.20;1.20;;;25.60;59.10;;;24.35;38.12;100879.84;10315916;28;96679;-88
2023/09/04 10:55:12;;;;;;;2.28;1.20;;;25.60;58.30;;;24.45;38.77;100880.03;10299358;28;96604;-87
2023/09/04 11:00:39;;;;;;;2.70;1.10;;;25.70;59.00;;;24.56;37.13;100879.16;10287817;28;98386;-89
2023/09/04 11:06:07;;;;;;;1.90;1.20;;;25.80;57.70;;;24.49;36.78;100878.50;10299592;28;96575;-89
2023/09/04 11:11:11;;;;;;;2.72;1.10;;;25.80;57.10;;;24.51;35.97;100873.63;10323995;28;96956;-87
2023/09/04 11:16:15;;;;;;;1.65;1.10;;;25.90;56.80;;;24.51;37.35;100870.91;10294799;28;98465;-88
2023/09/04 11:21:22;;;;;;;1.85;1.42;;;25.90;56.80;;;24.65;37.31;100864.13;10303840;28;96785;-87
2023/09/04 11:26:26;;;;;;;3.38;1.20;;;26.00;57.20;;;24.67;37.84;100861.97;10297246;28;97681;-88
2023/09/04 11:31:32;;;;;;;2.05;1.35;;;26.00;56.80;;;24.69;36.79;100851.66;10286642;28;96780;-87
2023/09/04 11:36:39;;;;;;;2.80;1.13;;;26.10;56.50;;;24.71;36.86;100862.28;10292950;28;98603;-88
2023/09/04 11:41:42;;;;;;;1.90;1.27;;;26.00;56.30;;;24.69;36.38;100850.84;10279267;28;96613;-89
2023/09/04 11:46:46;;;;;;;1.77;1.25;;;26.10;56.10;;;24.84;36.78;100859.28;10298807;28;96621;-88
2023/09/04 11:51:51;;;;;;;1.40;1.10;;;26.20;56.60;;;24.78;36.43;100846.66;10323978;28;97289;-88
2023/09/04 11:56:55;;;;;;;1.42;1.10;;;26.30;55.70;;;24.97;36.57;100847.25;10311856;28;96713;-88
2023/09/04 12:01:58;;;;;;;2.28;1.10;;;26.30;56.00;;;25.24;36.62;100841.97;10316309;28;96688;-87
2023/09/04 12:07:07;;;;;;;1.60;1.00;;;26.60;55.80;;;25.17;36.43;100841.31;10315594;28;97359;-88
2023/09/04 12:12:10;;;;;;;1.20;0.93;;;26.60;55.50;;;24.95;35.85;100828.47;10291728;28;97370;-88
2023/09/04 12:17:14;;;;;;;1.88;1.10;;;26.40;55.60;;;25.11;36.51;100821.38;10295922;28;96769;-88
2023/09/04 12:22:19;;;;;;;1.70;1.30;;;26.50;55.70;;;25.26;36.04;100818.91;10320479;28;97323;-87
2023/09/04 12:27:24;;;;;;;1.83;1.08;;;26.60;55.30;;;25.23;36.23;100808.50;10299523;28;98993;-88
2023/09/04 12:32:27;;;;;;;1.70;1.00;;;26.60;55.50;;;25.23;36.85;100808.50;10334295;28;96626;-88
2023/09/04 12:37:34;;;;;;;3.70;1.20;;;26.60;55.70;;;25.24;37.13;100806.63;10296307;28;97238;-88
2023/09/04 12:42:38;;;;;;;1.95;1.20;;;26.60;56.10;;;25.34;36.95;100799.44;10303476;28;96585;-88
2023/09/04 12:47:42;;;;;;;2.00;1.30;;;26.60;56.00;;;25.49;36.67;100792.53;10310205;28;96734;-88
2023/09/04 12:52:49;;;;;;;1.92;1.10;;;26.70;56.20;;;25.50;36.39;100775.16;10291757;28;96705;-88
2023/09/04 12:58:00;;;;;;;2.25;1.10;;;26.90;55.60;;;25.44;36.35;100801.47;10301946;28;97170;-88
2023/09/04 13:03:05;;;;;;;2.85;1.20;;;26.90;55.70;;;24.97;36.42;100799.13;10301768;28;99519;-88
2023/09/04 13:08:10;;;;;;;1.88;1.05;;;26.40;55.00;;;24.67;37.28;100782.34;10311256;28;98399;-88
2023/09/04 13:13:13;;;;;;;1.67;1.00;;;26.10;55.50;;;24.69;37.75;100786.44;10314776;28;98471;-88
2023/09/04 13:18:17;;;;;;;2.90;1.30;;;25.90;56.60;;;24.70;37.68;100766.34;10302025;28;96624;-89
2023/09/04 13:23:21;;;;;;;1.77;1.20;;;25.90;56.30;;;24.65;37.13;100768.16;10306056;28;98681;-89
2023/09/04 13:28:24;;;;;;;3.10;1.38;;;25.90;55.90;;;24.55;36.90;100782.41;10310057;28;98099;-89
2023/09/04 13:33:29;;;;;;;2.55;1.20;;;25.80;55.80;;;24.33;35.49;100778.72;10314903;28;96756;-89
2023/09/04 13:38:33;;;;;;;2.72;1.30;;;25.50;54.30;;;24.31;36.63;100778.97;10298228;28;96846;-88
2023/09/04 13:43:36;;;;;;;3.17;1.25;;;25.50;54.90;;;24.41;36.69;100762.06;10314791;28;98110;-90
2023/09/04 13:48:40;;;;;;;1.75;1.00;;;25.60;55.50;;;24.66;37.05;100759.78;10296531;28;96669;-88
2023/09/04 13:53:43;;;;;;;1.90;1.30;;;25.90;55.40;;;25.02;36.64;100752.16;10311007;28;96673;-89
2023/09/04 13:58:47;;;;;;;2.40;1.20;;;26.40;55.60;;;25.15;35.52;100751.84;10309623;28;96630;-87
2023/09/04 14:03:51;;;;;;;1.45;0.95;;;26.70;54.10;;;25.05;35.18;100754.41;10309842;28;97008;-87
2023/09/04 14:08:55;;;;;;;2.13;1.23;;;26.50;53.40;;;24.97;35.48;100752.91;10321986;28;99001;-88
2023/09/04 14:14:00;;;;;;;3.22;1.40;;;26.30;53.70;;;24.88;32.28;100757.13;10299915;28;96522;-87
2023/09/04 14:19:03;;;;;;;2.33;1.40;;;26.30;51.50;;;24.72;31.66;100752.53;10305329;28;97267;-88
2023/09/04 14:24:07;;;;;;;2.13;1.10;;;26.10;49.50;;;24.69;31.95;100751.13;10290197;28;98300;-88
2023/09/04 14:29:12;;;;;;;4.43;1.27;;;26.00;50.00;;;24.66;32.46;100743.47;10283127;28;98364;-89
2023/09/04 14:34:17;;;;;;;2.38;1.35;;;26.00;50.60;;;24.77;32.70;100758.03;10326935;28;97666;-89
2023/09/04 14:39:20;;;;;;;2.00;1.10;;;26.00;50.40;;;24.93;32.07;100756.38;10311361;28;98344;-88
2023/09/04 14:44:24;;;;;;;2.05;1.10;;;26.30;50.40;;;25.29;32.61;100760.44;10285783;28;97141;-88
2023/09/04 14:49:28;;;;;;;1.42;1.05;;;26.90;50.70;;;25.55;32.65;100739.81;10303864;28;96508;-88
2023/09/04 14:54:32;;;;;;;1.85;1.27;;;27.30;50.30;;;25.83;32.75;100747.81;10299585;28;98223;-90
2023/09/04 15:55:47;;;;;;;1.98;1.30;;;29.00;48.40;;;26.45;33.24;100765.63;10324411;28;97318;-88
2023/09/04 16:00:52;;;;;;;2.10;1.33;;;28.50;49.30;;;26.05;33.63;100777.72;10319811;28;96656;-88
2023/09/04 16:05:55;;;;;;;1.85;1.20;;;28.00;49.80;;;25.36;34.27;100772.78;10292505;28;96737;-88
2023/09/04 16:10:59;;;;;;;1.98;1.27;;;27.30;50.60;;;24.89;35.65;100785.13;10312372;28;96594;-88
2023/09/04 16:16:03;;;;;;;1.70;1.20;;;26.50;51.70;;;24.41;36.68;100789.22;10312152;28;96994;-88
2023/09/04 16:21:07;;;;;;;1.52;1.17;;;25.90;52.90;;;24.04;37.60;100795.84;10298845;28;97615;-88
2023/09/04 16:26:11;;;;;;;2.30;1.52;;;25.50;53.70;;;23.73;38.32;100802.56;10266669;28;97348;-88
2023/09/04 16:31:15;;;;;;;2.03;1.17;;;25.10;54.40;;;23.52;38.43;100808.63;10310206;28;98541;-89
2023/09/04 16:36:19;;;;;;;1.65;1.20;;;24.80;54.70;;;23.27;38.92;100810.75;10301223;28;98432;-87
2023/09/04 16:41:22;;;;;;;2.92;1.25;;;24.50;55.20;;;23.02;39.34;100814.53;10294677;28;98264;-88
2023/09/04 16:46:27;;;;;;;2.65;1.50;;;24.30;55.70;;;22.78;39.75;100826.38;10284069;28;97363;-88
2023/09/04 16:51:31;;;;;;;2.92;1.33;;;24.00;56.30;;;22.52;40.51;100824.91;10291428;28;99136;-87
2023/09/04 16:56:48;;;;;;;2.20;1.45;;;23.80;56.80;;;22.41;40.99;100835.47;10285609;28;96515;-88
2023/09/04 17:01:52;;;;;;;2.92;1.20;;;23.60;57.30;;;22.29;41.54;100831.88;10309488;28;97409;-88
2023/09/04 17:06:55;;;;;;;2.00;1.20;;;23.50;57.90;;;22.18;42.12;100835.38;10313981;28;98348;-88
2023/09/04 17:12:00;;;;;;;1.92;1.30;;;23.40;58.10;;;22.05;42.46;100832.81;10316525;28;96941;-87
2023/09/04 17:17:04;;;;;;;2.53;1.17;;;23.30;58.60;;;21.94;42.71;100837.09;10286867;28;96741;-88
2023/09/04 17:22:08;;;;;;;6.43;1.77;;;23.10;59.00;;;21.79;43.31;100832.09;10285065;28;98898;-88
2023/09/04 17:27:11;;;;;;;3.30;1.48;;;23.00;59.60;;;21.64;43.74;100837.88;10283238;28;96609;-88
2023/09/04 17:32:15;;;;;;;4.35;1.88;;;22.80;60.30;;;21.44;44.57;100850.78;10302595;28;96930;-88
2023/09/04 17:37:18;;;;;;;4.55;1.35;;;22.50;61.10;;;21.16;45.45;100848.50;10313916;28;98477;-88
2023/09/04 17:42:22;;;;;;;2.42;1.83;;;22.20;62.20;;;20.86;46.43;100840.25;10299186;28;97372;-88
2023/09/04 17:47:26;;;;;;;4.45;2.45;;;21.90;63.10;;;20.55;47.53;100847.31;10263159;28;97668;-88
2023/09/04 17:52:30;;;;;;;3.15;2.00;;;21.70;64.00;;;20.37;48.31;100866.09;10300692;28;98359;-88
2023/09/04 17:57:33;;;;;;;4.38;2.40;;;21.40;64.80;;;20.09;48.80;100854.81;10309715;28;98112;-90
2023/09/04 18:02:38;;;;;;;4.40;2.08;;;21.20;65.60;;;19.81;50.12;100845.19;10289705;28;98791;-87
2023/09/04 18:07:42;;;;;;;2.70;1.70;;;20.90;66.50;;;19.71;50.42;100874.44;10310259;28;97011;-88
2023/09/04 18:12:46;;;;;;;3.40;1.65;;;20.70;66.70;;;19.54;51.05;100876.72;10297174;28;96650;-88
2023/09/04 18:17:50;;;;;;;3.03;1.77;;;20.60;67.30;;;19.40;50.80;100867.84;10293969;28;96772;-88
2023/09/04 18:22:54;;;;;;;3.60;2.15;;;20.50;67.60;;;19.33;51.55;100877.81;10305520;28;98449;-89
2023/09/04 18:27:59;;;;;;;3.65;2.22;;;20.30;67.90;;;19.22;51.72;100879.25;10309739;28;96517;-88
2023/09/04 18:33:04;;;;;;;3.22;2.28;;;20.30;68.30;;;19.05;52.28;100867.25;10292564;28;98431;-88
2023/09/04 18:38:08;;;;;;;4.65;2.83;;;20.10;68.90;;;18.92;53.46;100875.31;10290830;28;98729;-88
2023/09/04 18:43:11;;;;;;;4.43;2.92;;;20.00;69.60;;;18.78;53.63;100890.66;10313036;28;97396;-88
2023/09/04 18:48:16;;;;;;;3.72;2.53;;;19.80;70.10;;;18.66;54.46;100897.63;10298065;28;96652;-89
2023/09/04 18:53:21;;;;;;;8.40;3.05;;;19.70;70.70;;;18.48;55.19;100884.75;10324932;28;96746;-88
2023/09/04 18:58:25;;;;;;;4.82;3.17;;;19.50;71.30;;;18.29;55.45;100894.44;10284998;28;96615;-88
2023/09/04 19:03:30;;;;;;;4.03;2.47;;;19.40;71.70;;;18.24;56.02;100904.13;10318538;28;98540;-87
2023/09/04 19:08:34;;;;;;;3.60;2.40;;;19.30;72.00;;;18.12;56.46;100912.75;10305524;28;100075;-87
2023/09/04 19:13:38;;;;;;;3.78;2.92;;;19.20;72.50;;;17.95;57.12;100905.22;10314570;28;96513;-87
2023/09/04 19:18:41;;;;;;;3.72;2.60;;;19.10;72.90;;;17.83;58.28;100915.72;10311598;28;97743;-88
2023/09/04 19:23:46;;;;;;;3.60;2.40;;;18.90;73.60;;;17.70;59.17;100924.50;10304237;28;98520;-88
2023/09/04 19:28:50;;;;;;;3.95;2.15;;;18.70;74.40;;;17.56;59.45;100933.47;10295264;28;96714;-89
2023/09/04 19:33:55;;;;;;;3.53;2.40;;;18.60;74.80;;;17.47;59.42;100940.03;10314951;28;96651;-88
2023/09/04 19:39:00;;;;;;;3.55;1.92;;;18.50;74.80;;;17.35;59.92;100931.66;10313381;28;96659;-87
2023/09/04 19:44:04;;;;;;;5.30;2.10;;;18.40;75.40;;;17.30;61.02;100942.16;10310457;28;96678;-87
2023/09/04 19:49:08;;;;;;;3.55;2.50;;;18.40;76.00;;;17.16;61.70;100930.50;10294296;28;96761;-88
2023/09/04 19:54:11;;;;;;;3.35;2.00;;;18.20;76.90;;;17.10;61.84;100939.31;10306017;28;96835;-88
2023/09/04 19:59:15;;;;;;;3.10;1.95;;;18.10;76.60;;;17.01;61.91;100932.41;10313175;28;96570;-88
2023/09/04 20:04:18;;;;;;;3.22;2.33;;;18.10;76.90;;;16.94;62.12;100931.50;10276305;28;98175;-87
2023/09/04 20:09:22;;;;;;;2.38;1.83;;;18.00;77.10;;;16.92;62.65;100944.31;10286499;28;96867;-89
2023/09/04 20:14:26;;;;;;;3.35;2.28;;;18.00;77.50;;;16.87;62.61;100944.03;10294237;28;97708;-88
2023/09/04 20:19:31;;;;;;;3.42;2.60;;;17.90;77.60;;;16.80;62.93;100943.97;10319974;28;96567;-88
2023/09/04 20:24:35;;;;;;;6.93;2.35;;;17.80;77.60;;;16.75;62.96;100952.59;10329036;28;96592;-88
2023/09/04 20:29:38;;;;;;;2.60;1.88;;;17.80;77.90;;;16.70;63.16;100949.63;10285580;28;96664;-88
2023/09/04 20:34:42;;;;;;;2.92;1.95;;;17.80;78.10;;;16.57;63.56;100939.56;10299704;28;96783;-88
2023/09/04 20:39:47;;;;;;;3.53;2.00;;;17.70;78.30;;;16.55;63.96;100952.34;10337027;28;97481;-88
2023/09/04 20:44:51;;;;;;;3.03;1.90;;;17.70;78.70;;;16.44;63.97;100938.56;10301977;28;96656;-88
2023/09/04 20:49:55;;;;;;;3.20;2.13;;;17.60;78.90;;;16.45;64.54;100964.38;10329678;28;96747;-88
2023/09/04 20:54:59;;;;;;;3.20;2.10;;;17.50;79.10;;;16.37;64.47;100967.16;10319580;28;96914;-87
2023/09/04 21:00:03;;;;;;;2.90;1.98;;;17.50;79.40;;;16.33;65.02;100966.72;10338603;28;99054;-88
2023/09/04 21:05:07;;;;;;;3.22;2.30;;;17.40;79.70;;;16.30;64.90;100970.56;10312822;28;98677;-88
2023/09/04 23:24:21;;;;;;;2.38;1.88;;;17.70;82.50;;;16.95;65.68;100954.63;10329690;28;97355;-87
2023/09/04 23:29:26;;;;;;;2.72;1.88;;;17.90;82.10;;;17.03;65.21;100947.31;10298023;28;96581;-87
2023/09/04 23:34:32;;;;;;;3.15;1.88;;;18.00;81.90;;;17.03;65.20;100943.75;10296512;28;96575;-88
2023/09/04 23:45:16;;;;;;;9.45;2.30;;;18.10;81.90;;;17.03;65.02;100935.72;10317734;28;96617;-88
2023/09/04 23:50:22;;;;;;;2.60;1.98;;;18.10;81.90;;;17.05;65.23;100939.06;10328266;28;97350;-88
2023/09/04 23:55:26;;;;;;;2.55;1.75;;;18.10;81.90;;;16.99;65.08;100950.56;10301843;28;96655;-88
